sensor_id;sensor_type;location;lat;lon;timestamp;P1;durP1;ratioP1;P2;durP2;ratioP2
60292;SDS011;52402;52.670;6.750;2024-01-30T07:45:43;5.30;;;4.90;;
60292;SDS011;52402;52.670;6.750;2024-01-30T07:56:51;6.40;;;6.00;;
60292;SDS011;52402;52.670;6.750;2024-01-30T07:59:32;5.50;;;5.10;;
60292;SDS011;52402;52.670;6.750;2024-01-30T08:02:04;5.22;;;4.82;;
60292;SDS011;52402;52.670;6.750;2024-01-30T08:04:30;4.95;;;4.63;;
60292;SDS011;52402;52.670;6.750;2024-01-30T08:07:08;5.00;;;4.70;;
60292;SDS011;52402;52.670;6.750;2024-01-30T08:09:37;4.90;;;4.60;;
60292;SDS011;52402;52.670;6.750;2024-01-30T08:17:46;4.80;;;4.50;;
60292;SDS011;52402;52.670;6.750;2024-01-30T08:54:27;4.65;;;4.35;;
60292;SDS011;52402;52.670;6.750;2024-01-30T08:56:53;4.60;;;4.30;;
60292;SDS011;52402;52.670;6.750;2024-01-30T08:59:18;5.15;;;4.75;;
60292;SDS011;52402;52.670;6.750;2024-01-30T09:01:44;4.43;;;4.13;;
60292;SDS011;52402;52.670;6.750;2024-01-30T09:04:10;4.82;;;4.53;;
60292;SDS011;52402;52.670;6.750;2024-01-30T09:06:35;5.15;;;4.75;;
60292;SDS011;52402;52.670;6.750;2024-01-30T09:09:01;4.63;;;4.32;;
60292;SDS011;52402;52.670;6.750;2024-01-30T09:11:26;4.80;;;4.50;;
60292;SDS011;52402;52.670;6.750;2024-01-30T09:13:52;5.45;;;5.05;;
60292;SDS011;52402;52.670;6.750;2024-01-30T09:16:18;5.18;;;4.78;;
60292;SDS011;52402;52.670;6.750;2024-01-30T09:18:43;5.70;;;5.30;;
60292;SDS011;52402;52.670;6.750;2024-01-30T09:21:09;5.70;;;5.30;;
60292;SDS011;52402;52.670;6.750;2024-01-30T09:23:35;5.65;;;5.25;;
60292;SDS011;52402;52.670;6.750;2024-01-30T09:26:01;5.93;;;5.53;;
60292;SDS011;52402;52.670;6.750;2024-01-30T09:28:26;5.60;;;5.20;;
60292;SDS011;52402;52.670;6.750;2024-01-30T09:30:52;5.20;;;4.80;;
60292;SDS011;52402;52.670;6.750;2024-01-30T09:33:17;5.60;;;5.20;;
60292;SDS011;52402;52.670;6.750;2024-01-30T09:35:43;5.75;;;5.35;;
60292;SDS011;52402;52.670;6.750;2024-01-30T09:38:08;5.72;;;5.32;;
60292;SDS011;52402;52.670;6.750;2024-01-30T09:40:35;5.60;;;5.20;;
60292;SDS011;52402;52.670;6.750;2024-01-30T09:43:01;5.75;;;5.35;;
60292;SDS011;52402;52.670;6.750;2024-01-30T09:45:26;5.70;;;5.30;;
60292;SDS011;52402;52.670;6.750;2024-01-30T09:47:52;6.07;;;5.68;;
60292;SDS011;52402;52.670;6.750;2024-01-30T09:50:18;6.00;;;5.60;;
60292;SDS011;52402;52.670;6.750;2024-01-30T09:52:45;5.57;;;5.18;;
60292;SDS011;52402;52.670;6.750;2024-01-30T09:55:14;5.55;;;5.15;;
60292;SDS011;52402;52.670;6.750;2024-01-30T09:57:41;5.90;;;5.50;;
60292;SDS011;52402;52.670;6.750;2024-01-30T10:00:07;6.10;;;5.70;;
60292;SDS011;52402;52.670;6.750;2024-01-30T10:02:34;5.40;;;5.00;;
60292;SDS011;52402;52.670;6.750;2024-01-30T10:05:00;5.60;;;5.20;;
60292;SDS011;52402;52.670;6.750;2024-01-30T10:07:26;5.68;;;5.28;;
60292;SDS011;52402;52.670;6.750;2024-01-30T10:09:55;5.50;;;5.10;;
60292;SDS011;52402;52.670;6.750;2024-01-30T10:12:21;5.80;;;5.40;;
60292;SDS011;52402;52.670;6.750;2024-01-30T10:14:47;5.78;;;5.38;;
60292;SDS011;52402;52.670;6.750;2024-01-30T10:17:13;5.70;;;5.30;;
60292;SDS011;52402;52.670;6.750;2024-01-30T10:19:39;6.13;;;5.72;;
60292;SDS011;52402;52.670;6.750;2024-01-30T10:22:06;5.53;;;5.13;;
60292;SDS011;52402;52.670;6.750;2024-01-30T10:24:33;5.78;;;5.38;;
60292;SDS011;52402;52.670;6.750;2024-01-30T10:26:59;5.30;;;4.90;;
60292;SDS011;52402;52.670;6.750;2024-01-30T10:29:24;5.30;;;4.90;;
60292;SDS011;52402;52.670;6.750;2024-01-30T10:32:03;5.40;;;5.00;;
60292;SDS011;52402;52.670;6.750;2024-01-30T10:34:30;5.70;;;5.30;;
60292;SDS011;52402;52.670;6.750;2024-01-30T10:37:06;5.40;;;5.00;;
60292;SDS011;52402;52.670;6.750;2024-01-30T10:39:41;6.32;;;5.93;;
60292;SDS011;52402;52.670;6.750;2024-01-30T10:44:39;6.07;;;5.68;;
60292;SDS011;52402;52.670;6.750;2024-01-30T10:47:18;6.05;;;5.65;;
60292;SDS011;52402;52.670;6.750;2024-01-30T10:49:50;5.50;;;5.10;;
60292;SDS011;52402;52.670;6.750;2024-01-30T10:52:17;5.80;;;5.40;;
60292;SDS011;52402;52.670;6.750;2024-01-30T10:54:44;5.93;;;5.53;;
60292;SDS011;52402;52.670;6.750;2024-01-30T10:57:10;6.90;;;6.50;;
60292;SDS011;52402;52.670;6.750;2024-01-30T10:59:37;6.43;;;6.03;;
60292;SDS011;52402;52.670;6.750;2024-01-30T11:02:04;6.78;;;6.38;;
60292;SDS011;52402;52.670;6.750;2024-01-30T11:04:37;6.60;;;6.20;;
60292;SDS011;52402;52.670;6.750;2024-01-30T11:07:25;6.88;;;6.47;;
60292;SDS011;52402;52.670;6.750;2024-01-30T11:12:16;6.65;;;6.25;;
60292;SDS011;52402;52.670;6.750;2024-01-30T11:14:46;7.22;;;6.80;;
60292;SDS011;52402;52.670;6.750;2024-01-30T11:17:11;7.05;;;6.65;;
60292;SDS011;52402;52.670;6.750;2024-01-30T11:19:37;7.05;;;6.65;;
60292;SDS011;52402;52.670;6.750;2024-01-30T11:22:03;6.40;;;6.00;;
60292;SDS011;52402;52.670;6.750;2024-01-30T11:24:36;6.72;;;6.32;;
60292;SDS011;52402;52.670;6.750;2024-01-30T11:27:10;6.60;;;6.20;;
60292;SDS011;52402;52.670;6.750;2024-01-30T11:29:35;6.72;;;6.32;;
60292;SDS011;52402;52.670;6.750;2024-01-30T11:32:01;6.65;;;6.25;;
60292;SDS011;52402;52.670;6.750;2024-01-30T11:34:27;6.70;;;6.30;;
60292;SDS011;52402;52.670;6.750;2024-01-30T11:36:56;6.30;;;5.90;;
60292;SDS011;52402;52.670;6.750;2024-01-30T11:39:28;6.97;;;6.57;;
60292;SDS011;52402;52.670;6.750;2024-01-30T11:44:22;7.10;;;6.70;;
60292;SDS011;52402;52.670;6.750;2024-01-30T11:46:50;6.30;;;5.90;;
60292;SDS011;52402;52.670;6.750;2024-01-30T11:49:17;6.82;;;6.43;;
60292;SDS011;52402;52.670;6.750;2024-01-30T11:51:45;7.72;;;7.22;;
60292;SDS011;52402;52.670;6.750;2024-01-30T11:54:13;6.40;;;6.00;;
60292;SDS011;52402;52.670;6.750;2024-01-30T11:56:39;6.80;;;6.40;;
60292;SDS011;52402;52.670;6.750;2024-01-30T11:59:05;6.38;;;5.97;;
60292;SDS011;52402;52.670;6.750;2024-01-30T12:01:31;6.35;;;5.95;;
60292;SDS011;52402;52.670;6.750;2024-01-30T12:03:58;6.55;;;6.15;;
60292;SDS011;52402;52.670;6.750;2024-01-30T12:06:24;7.15;;;6.75;;
60292;SDS011;52402;52.670;6.750;2024-01-30T12:08:57;6.80;;;6.40;;
60292;SDS011;52402;52.670;6.750;2024-01-30T12:11:25;6.95;;;6.55;;
60292;SDS011;52402;52.670;6.750;2024-01-30T12:13:52;6.90;;;6.50;;
60292;SDS011;52402;52.670;6.750;2024-01-30T12:16:18;7.32;;;6.93;;
60292;SDS011;52402;52.670;6.750;2024-01-30T12:18:44;6.93;;;6.53;;
60292;SDS011;52402;52.670;6.750;2024-01-30T12:21:10;6.53;;;6.13;;
60292;SDS011;52402;52.670;6.750;2024-01-30T12:23:35;7.15;;;6.75;;
60292;SDS011;52402;52.670;6.750;2024-01-30T12:26:01;6.53;;;6.13;;
60292;SDS011;52402;52.670;6.750;2024-01-30T12:31:01;7.05;;;6.65;;
60292;SDS011;52402;52.670;6.750;2024-01-30T12:35:57;7.75;;;7.25;;
60292;SDS011;52402;52.670;6.750;2024-01-30T12:38:26;7.30;;;6.90;;
60292;SDS011;52402;52.670;6.750;2024-01-30T12:40:55;7.15;;;6.75;;
60292;SDS011;52402;52.670;6.750;2024-01-30T12:43:21;7.57;;;7.07;;
60292;SDS011;52402;52.670;6.750;2024-01-30T12:45:48;7.57;;;7.07;;
60292;SDS011;52402;52.670;6.750;2024-01-30T12:48:13;7.55;;;7.05;;
60292;SDS011;52402;52.670;6.750;2024-01-30T12:50:39;7.45;;;6.95;;
60292;SDS011;52402;52.670;6.750;2024-01-30T12:53:04;7.55;;;7.05;;
60292;SDS011;52402;52.670;6.750;2024-01-30T12:55:31;7.13;;;6.72;;
60292;SDS011;52402;52.670;6.750;2024-01-30T12:57:56;7.22;;;6.82;;
60292;SDS011;52402;52.670;6.750;2024-01-30T13:00:22;7.50;;;7.00;;
60292;SDS011;52402;52.670;6.750;2024-01-30T13:02:47;7.82;;;7.32;;
60292;SDS011;52402;52.670;6.750;2024-01-30T13:05:13;7.03;;;6.63;;
60292;SDS011;52402;52.670;6.750;2024-01-30T13:07:39;7.55;;;7.05;;
60292;SDS011;52402;52.670;6.750;2024-01-30T13:10:05;7.50;;;7.00;;
60292;SDS011;52402;52.670;6.750;2024-01-30T13:12:31;6.85;;;6.45;;
60292;SDS011;52402;52.670;6.750;2024-01-30T13:15:00;7.03;;;6.63;;
60292;SDS011;52402;52.670;6.750;2024-01-30T13:17:27;6.82;;;6.43;;
60292;SDS011;52402;52.670;6.750;2024-01-30T13:19:52;7.05;;;6.65;;
60292;SDS011;52402;52.670;6.750;2024-01-30T13:22:19;7.18;;;6.78;;
60292;SDS011;52402;52.670;6.750;2024-01-30T13:24:46;7.03;;;6.63;;
60292;SDS011;52402;52.670;6.750;2024-01-30T13:27:12;6.68;;;6.28;;
60292;SDS011;52402;52.670;6.750;2024-01-30T13:29:38;6.78;;;6.38;;
60292;SDS011;52402;52.670;6.750;2024-01-30T13:32:04;7.35;;;6.90;;
60292;SDS011;52402;52.670;6.750;2024-01-30T13:34:29;7.00;;;6.60;;
60292;SDS011;52402;52.670;6.750;2024-01-30T13:36:56;6.70;;;6.30;;
60292;SDS011;52402;52.670;6.750;2024-01-30T13:39:22;6.38;;;5.97;;
60292;SDS011;52402;52.670;6.750;2024-01-30T13:41:48;6.90;;;6.50;;
60292;SDS011;52402;52.670;6.750;2024-01-30T13:44:15;6.97;;;6.57;;
60292;SDS011;52402;52.670;6.750;2024-01-30T13:46:41;7.20;;;6.80;;
60292;SDS011;52402;52.670;6.750;2024-01-30T13:49:09;6.75;;;6.35;;
60292;SDS011;52402;52.670;6.750;2024-01-30T13:51:34;7.28;;;6.88;;
60292;SDS011;52402;52.670;6.750;2024-01-30T13:54:00;6.60;;;6.20;;
60292;SDS011;52402;52.670;6.750;2024-01-30T13:56:26;7.05;;;6.65;;
60292;SDS011;52402;52.670;6.750;2024-01-30T13:58:52;6.85;;;6.45;;
60292;SDS011;52402;52.670;6.750;2024-01-30T14:01:18;6.70;;;6.30;;
60292;SDS011;52402;52.670;6.750;2024-01-30T14:03:44;6.80;;;6.40;;
60292;SDS011;52402;52.670;6.750;2024-01-30T14:06:10;6.90;;;6.50;;
60292;SDS011;52402;52.670;6.750;2024-01-30T14:08:36;6.75;;;6.35;;
60292;SDS011;52402;52.670;6.750;2024-01-30T14:11:02;7.32;;;6.88;;
60292;SDS011;52402;52.670;6.750;2024-01-30T14:13:28;7.13;;;6.72;;
60292;SDS011;52402;52.670;6.750;2024-01-30T14:15:54;7.10;;;6.70;;
60292;SDS011;52402;52.670;6.750;2024-01-30T14:18:20;6.63;;;6.22;;
60292;SDS011;52402;52.670;6.750;2024-01-30T14:20:46;6.65;;;6.25;;
60292;SDS011;52402;52.670;6.750;2024-01-30T14:23:11;6.20;;;5.80;;
60292;SDS011;52402;52.670;6.750;2024-01-30T14:25:37;6.32;;;5.93;;
60292;SDS011;52402;52.670;6.750;2024-01-30T14:28:02;6.50;;;6.10;;
60292;SDS011;52402;52.670;6.750;2024-01-30T14:30:29;6.50;;;6.10;;
60292;SDS011;52402;52.670;6.750;2024-01-30T14:32:54;6.40;;;6.00;;
60292;SDS011;52402;52.670;6.750;2024-01-30T14:35:21;6.68;;;6.28;;
60292;SDS011;52402;52.670;6.750;2024-01-30T14:37:47;7.28;;;6.88;;
60292;SDS011;52402;52.670;6.750;2024-01-30T14:40:12;7.00;;;6.60;;
60292;SDS011;52402;52.670;6.750;2024-01-30T14:42:38;7.20;;;6.80;;
60292;SDS011;52402;52.670;6.750;2024-01-30T14:45:04;7.00;;;6.60;;
60292;SDS011;52402;52.670;6.750;2024-01-30T14:47:30;6.65;;;6.25;;
60292;SDS011;52402;52.670;6.750;2024-01-30T14:49:56;6.95;;;6.55;;
60292;SDS011;52402;52.670;6.750;2024-01-30T14:52:22;7.00;;;6.60;;
60292;SDS011;52402;52.670;6.750;2024-01-30T14:54:48;6.30;;;5.90;;
60292;SDS011;52402;52.670;6.750;2024-01-30T14:57:13;6.47;;;6.07;;
60292;SDS011;52402;52.670;6.750;2024-01-30T14:59:39;6.72;;;6.32;;
60292;SDS011;52402;52.670;6.750;2024-01-30T15:02:06;6.57;;;6.18;;
60292;SDS011;52402;52.670;6.750;2024-01-30T15:04:31;6.40;;;6.00;;
60292;SDS011;52402;52.670;6.750;2024-01-30T15:06:57;6.85;;;6.45;;
60292;SDS011;52402;52.670;6.750;2024-01-30T15:09:23;6.35;;;5.95;;
60292;SDS011;52402;52.670;6.750;2024-01-30T15:11:51;6.13;;;5.72;;
60292;SDS011;52402;52.670;6.750;2024-01-30T15:14:17;6.75;;;6.35;;
60292;SDS011;52402;52.670;6.750;2024-01-30T15:16:43;6.55;;;6.15;;
60292;SDS011;52402;52.670;6.750;2024-01-30T15:19:08;6.40;;;6.00;;
60292;SDS011;52402;52.670;6.750;2024-01-30T15:21:34;6.80;;;6.40;;
60292;SDS011;52402;52.670;6.750;2024-01-30T15:23:59;6.53;;;6.13;;
60292;SDS011;52402;52.670;6.750;2024-01-30T15:26:26;6.25;;;5.85;;
60292;SDS011;52402;52.670;6.750;2024-01-30T15:28:51;6.38;;;5.97;;
60292;SDS011;52402;52.670;6.750;2024-01-30T15:31:17;6.68;;;6.28;;
60292;SDS011;52402;52.670;6.750;2024-01-30T15:33:43;6.60;;;6.20;;
60292;SDS011;52402;52.670;6.750;2024-01-30T15:36:08;7.07;;;6.68;;
60292;SDS011;52402;52.670;6.750;2024-01-30T15:38:35;6.68;;;6.28;;
60292;SDS011;52402;52.670;6.750;2024-01-30T15:41:01;6.75;;;6.35;;
60292;SDS011;52402;52.670;6.750;2024-01-30T15:43:27;7.07;;;6.68;;
60292;SDS011;52402;52.670;6.750;2024-01-30T15:45:53;6.95;;;6.55;;
60292;SDS011;52402;52.670;6.750;2024-01-30T15:48:19;7.43;;;6.93;;
60292;SDS011;52402;52.670;6.750;2024-01-30T15:50:45;6.82;;;6.43;;
60292;SDS011;52402;52.670;6.750;2024-01-30T15:53:10;7.53;;;7.05;;
60292;SDS011;52402;52.670;6.750;2024-01-30T15:55:36;6.95;;;6.55;;
60292;SDS011;52402;52.670;6.750;2024-01-30T15:58:03;6.80;;;6.40;;
60292;SDS011;52402;52.670;6.750;2024-01-30T16:00:29;7.90;;;7.40;;
60292;SDS011;52402;52.670;6.750;2024-01-30T16:02:54;7.10;;;6.70;;
60292;SDS011;52402;52.670;6.750;2024-01-30T16:05:22;7.07;;;6.68;;
60292;SDS011;52402;52.670;6.750;2024-01-30T16:07:48;7.10;;;6.70;;
60292;SDS011;52402;52.670;6.750;2024-01-30T16:10:13;7.90;;;7.40;;
60292;SDS011;52402;52.670;6.750;2024-01-30T16:12:42;6.70;;;6.30;;
60292;SDS011;52402;52.670;6.750;2024-01-30T16:15:11;7.03;;;6.63;;
60292;SDS011;52402;52.670;6.750;2024-01-30T16:17:40;7.55;;;7.05;;
60292;SDS011;52402;52.670;6.750;2024-01-30T16:20:07;7.40;;;6.97;;
60292;SDS011;52402;52.670;6.750;2024-01-30T16:22:33;7.10;;;6.70;;
60292;SDS011;52402;52.670;6.750;2024-01-30T16:25:00;7.22;;;6.80;;
60292;SDS011;52402;52.670;6.750;2024-01-30T16:27:26;7.95;;;7.45;;
60292;SDS011;52402;52.670;6.750;2024-01-30T16:29:51;7.25;;;6.85;;
60292;SDS011;52402;52.670;6.750;2024-01-30T16:32:18;7.50;;;7.00;;
60292;SDS011;52402;52.670;6.750;2024-01-30T16:34:44;7.65;;;7.15;;
60292;SDS011;52402;52.670;6.750;2024-01-30T16:37:10;7.15;;;6.75;;
60292;SDS011;52402;52.670;6.750;2024-01-30T16:39:36;7.40;;;6.90;;
60292;SDS011;52402;52.670;6.750;2024-01-30T16:42:01;8.02;;;7.53;;
60292;SDS011;52402;52.670;6.750;2024-01-30T16:44:27;8.02;;;7.53;;
60292;SDS011;52402;52.670;6.750;2024-01-30T16:46:53;8.63;;;8.13;;
60292;SDS011;52402;52.670;6.750;2024-01-30T16:49:19;8.40;;;7.90;;
60292;SDS011;52402;52.670;6.750;2024-01-30T16:51:44;9.20;;;8.70;;
60292;SDS011;52402;52.670;6.750;2024-01-30T16:54:10;8.45;;;7.95;;
60292;SDS011;52402;52.670;6.750;2024-01-30T16:56:36;8.40;;;7.90;;
60292;SDS011;52402;52.670;6.750;2024-01-30T16:59:02;8.40;;;7.90;;
60292;SDS011;52402;52.670;6.750;2024-01-30T17:01:27;8.55;;;8.05;;
60292;SDS011;52402;52.670;6.750;2024-01-30T17:03:55;9.23;;;8.73;;
60292;SDS011;52402;52.670;6.750;2024-01-30T17:06:21;9.65;;;9.15;;
60292;SDS011;52402;52.670;6.750;2024-01-30T17:08:46;9.35;;;8.85;;
60292;SDS011;52402;52.670;6.750;2024-01-30T17:11:12;9.15;;;8.65;;
60292;SDS011;52402;52.670;6.750;2024-01-30T17:13:37;9.27;;;8.77;;
60292;SDS011;52402;52.670;6.750;2024-01-30T17:16:03;9.65;;;9.15;;
60292;SDS011;52402;52.670;6.750;2024-01-30T17:18:31;9.75;;;9.25;;
60292;SDS011;52402;52.670;6.750;2024-01-30T17:20:57;9.35;;;8.85;;
60292;SDS011;52402;52.670;6.750;2024-01-30T17:23:23;9.40;;;8.90;;
60292;SDS011;52402;52.670;6.750;2024-01-30T17:25:50;10.07;;;9.48;;
60292;SDS011;52402;52.670;6.750;2024-01-30T17:28:16;10.30;;;9.70;;
60292;SDS011;52402;52.670;6.750;2024-01-30T17:30:42;9.45;;;8.95;;
60292;SDS011;52402;52.670;6.750;2024-01-30T17:33:08;9.85;;;9.35;;
60292;SDS011;52402;52.670;6.750;2024-01-30T17:35:33;10.52;;;9.93;;
60292;SDS011;52402;52.670;6.750;2024-01-30T17:37:59;10.27;;;9.68;;
60292;SDS011;52402;52.670;6.750;2024-01-30T17:40:25;10.68;;;10.07;;
60292;SDS011;52402;52.670;6.750;2024-01-30T17:42:50;9.45;;;8.95;;
60292;SDS011;52402;52.670;6.750;2024-01-30T17:45:16;10.00;;;9.45;;
60292;SDS011;52402;52.670;6.750;2024-01-30T17:47:42;10.35;;;9.75;;
60292;SDS011;52402;52.670;6.750;2024-01-30T17:50:07;10.00;;;9.45;;
60292;SDS011;52402;52.670;6.750;2024-01-30T17:52:33;9.95;;;9.43;;
60292;SDS011;52402;52.670;6.750;2024-01-30T17:54:59;10.32;;;9.73;;
60292;SDS011;52402;52.670;6.750;2024-01-30T17:57:24;9.95;;;9.43;;
60292;SDS011;52402;52.670;6.750;2024-01-30T17:59:50;10.45;;;9.85;;
60292;SDS011;52402;52.670;6.750;2024-01-30T18:02:16;9.20;;;8.70;;
60292;SDS011;52402;52.670;6.750;2024-01-30T18:04:42;9.38;;;8.88;;
60292;SDS011;52402;52.670;6.750;2024-01-30T18:07:07;9.48;;;8.98;;
60292;SDS011;52402;52.670;6.750;2024-01-30T18:22:07;10.68;;;10.07;;
60292;SDS011;52402;52.670;6.750;2024-01-30T18:24:33;9.90;;;9.38;;
60292;SDS011;52402;52.670;6.750;2024-01-30T18:27:00;10.07;;;9.48;;
60292;SDS011;52402;52.670;6.750;2024-01-30T18:29:26;10.35;;;9.75;;
60292;SDS011;52402;52.670;6.750;2024-01-30T18:31:51;10.70;;;10.10;;
60292;SDS011;52402;52.670;6.750;2024-01-30T18:34:17;11.50;;;10.90;;
60292;SDS011;52402;52.670;6.750;2024-01-30T18:36:42;11.63;;;11.02;;
60292;SDS011;52402;52.670;6.750;2024-01-30T18:39:08;10.63;;;10.02;;
60292;SDS011;52402;52.670;6.750;2024-01-30T18:41:35;10.50;;;9.90;;
60292;SDS011;52402;52.670;6.750;2024-01-30T18:44:00;11.20;;;10.60;;
60292;SDS011;52402;52.670;6.750;2024-01-30T18:46:27;11.30;;;10.70;;
60292;SDS011;52402;52.670;6.750;2024-01-30T18:48:53;10.55;;;9.95;;
60292;SDS011;52402;52.670;6.750;2024-01-30T18:51:19;10.70;;;10.10;;
60292;SDS011;52402;52.670;6.750;2024-01-30T18:53:44;10.27;;;9.68;;
60292;SDS011;52402;52.670;6.750;2024-01-30T18:56:12;10.90;;;10.30;;
60292;SDS011;52402;52.670;6.750;2024-01-30T18:58:38;11.85;;;11.25;;
60292;SDS011;52402;52.670;6.750;2024-01-30T19:01:03;10.75;;;10.15;;
60292;SDS011;52402;52.670;6.750;2024-01-30T19:03:29;10.80;;;10.20;;
60292;SDS011;52402;52.670;6.750;2024-01-30T19:05:55;11.23;;;10.63;;
60292;SDS011;52402;52.670;6.750;2024-01-30T19:08:20;11.30;;;10.70;;
60292;SDS011;52402;52.670;6.750;2024-01-30T19:10:46;11.00;;;10.40;;
60292;SDS011;52402;52.670;6.750;2024-01-30T19:13:14;10.95;;;10.35;;
60292;SDS011;52402;52.670;6.750;2024-01-30T19:15:40;11.38;;;10.77;;
60292;SDS011;52402;52.670;6.750;2024-01-30T19:18:08;11.25;;;10.65;;
60292;SDS011;52402;52.670;6.750;2024-01-30T19:20:33;10.77;;;10.18;;
60292;SDS011;52402;52.670;6.750;2024-01-30T19:22:59;10.50;;;9.90;;
60292;SDS011;52402;52.670;6.750;2024-01-30T19:25:25;10.65;;;10.05;;
60292;SDS011;52402;52.670;6.750;2024-01-30T19:27:50;10.00;;;9.45;;
60292;SDS011;52402;52.670;6.750;2024-01-30T19:30:17;9.88;;;9.35;;
60292;SDS011;52402;52.670;6.750;2024-01-30T19:32:43;9.10;;;8.60;;
60292;SDS011;52402;52.670;6.750;2024-01-30T19:35:09;9.98;;;9.43;;
60292;SDS011;52402;52.670;6.750;2024-01-30T19:37:35;9.90;;;9.38;;
60292;SDS011;52402;52.670;6.750;2024-01-30T19:40:02;9.52;;;9.02;;
60292;SDS011;52402;52.670;6.750;2024-01-30T19:42:31;9.40;;;8.90;;
60292;SDS011;52402;52.670;6.750;2024-01-30T19:44:56;10.48;;;9.88;;
60292;SDS011;52402;52.670;6.750;2024-01-30T19:47:22;9.70;;;9.20;;
60292;SDS011;52402;52.670;6.750;2024-01-30T19:49:48;8.90;;;8.40;;
60292;SDS011;52402;52.670;6.750;2024-01-30T19:52:13;9.57;;;9.07;;
60292;SDS011;52402;52.670;6.750;2024-01-30T19:54:39;9.73;;;9.23;;
60292;SDS011;52402;52.670;6.750;2024-01-30T19:57:06;9.70;;;9.20;;
60292;SDS011;52402;52.670;6.750;2024-01-30T19:59:31;9.52;;;9.02;;
60292;SDS011;52402;52.670;6.750;2024-01-30T20:01:59;10.13;;;9.52;;
60292;SDS011;52402;52.670;6.750;2024-01-30T20:04:25;9.55;;;9.05;;
60292;SDS011;52402;52.670;6.750;2024-01-30T20:06:52;10.43;;;9.82;;
60292;SDS011;52402;52.670;6.750;2024-01-30T20:09:18;9.50;;;9.00;;
60292;SDS011;52402;52.670;6.750;2024-01-30T20:11:44;10.02;;;9.48;;
60292;SDS011;52402;52.670;6.750;2024-01-30T20:14:10;10.30;;;9.70;;
60292;SDS011;52402;52.670;6.750;2024-01-30T20:16:36;10.43;;;9.82;;
60292;SDS011;52402;52.670;6.750;2024-01-30T20:19:05;10.75;;;10.15;;
60292;SDS011;52402;52.670;6.750;2024-01-30T20:21:32;11.60;;;11.00;;
60292;SDS011;52402;52.670;6.750;2024-01-30T20:23:58;9.20;;;8.70;;
60292;SDS011;52402;52.670;6.750;2024-01-30T20:26:24;10.75;;;10.15;;
60292;SDS011;52402;52.670;6.750;2024-01-30T20:28:50;10.52;;;9.93;;
60292;SDS011;52402;52.670;6.750;2024-01-30T20:31:20;10.77;;;10.18;;
60292;SDS011;52402;52.670;6.750;2024-01-30T20:33:49;11.30;;;10.70;;
60292;SDS011;52402;52.670;6.750;2024-01-30T20:36:16;10.32;;;9.73;;
60292;SDS011;52402;52.670;6.750;2024-01-30T20:38:42;10.38;;;9.77;;
60292;SDS011;52402;52.670;6.750;2024-01-30T20:41:08;10.23;;;9.63;;
60292;SDS011;52402;52.670;6.750;2024-01-30T20:43:40;10.00;;;9.48;;
60292;SDS011;52402;52.670;6.750;2024-01-30T20:46:06;9.30;;;8.80;;
60292;SDS011;52402;52.670;6.750;2024-01-30T20:48:32;9.73;;;9.23;;
60292;SDS011;52402;52.670;6.750;2024-01-30T20:50:57;11.00;;;10.40;;
60292;SDS011;52402;52.670;6.750;2024-01-30T20:53:23;10.38;;;9.77;;
60292;SDS011;52402;52.670;6.750;2024-01-30T20:55:49;9.35;;;8.85;;
60292;SDS011;52402;52.670;6.750;2024-01-30T20:58:15;9.90;;;9.40;;
60292;SDS011;52402;52.670;6.750;2024-01-30T21:00:41;9.75;;;9.25;;
60292;SDS011;52402;52.670;6.750;2024-01-30T21:03:06;9.82;;;9.32;;
60292;SDS011;52402;52.670;6.750;2024-01-30T21:05:32;9.00;;;8.50;;
60292;SDS011;52402;52.670;6.750;2024-01-30T21:07:58;8.82;;;8.32;;
60292;SDS011;52402;52.670;6.750;2024-01-30T21:10:24;9.02;;;8.52;;
60292;SDS011;52402;52.670;6.750;2024-01-30T21:12:50;8.77;;;8.27;;
60292;SDS011;52402;52.670;6.750;2024-01-30T21:15:15;10.18;;;9.60;;
60292;SDS011;52402;52.670;6.750;2024-01-30T21:17:42;9.75;;;9.25;;
60292;SDS011;52402;52.670;6.750;2024-01-30T21:20:09;8.70;;;8.20;;
60292;SDS011;52402;52.670;6.750;2024-01-30T21:22:35;9.85;;;9.35;;
60292;SDS011;52402;52.670;6.750;2024-01-30T21:25:01;9.60;;;9.10;;
60292;SDS011;52402;52.670;6.750;2024-01-30T21:27:28;8.65;;;8.15;;
60292;SDS011;52402;52.670;6.750;2024-01-30T21:29:54;9.27;;;8.77;;
60292;SDS011;52402;52.670;6.750;2024-01-30T21:32:19;8.85;;;8.35;;
60292;SDS011;52402;52.670;6.750;2024-01-30T21:34:45;9.20;;;8.70;;
60292;SDS011;52402;52.670;6.750;2024-01-30T21:37:11;9.02;;;8.52;;
60292;SDS011;52402;52.670;6.750;2024-01-30T21:39:36;8.52;;;8.02;;
60292;SDS011;52402;52.670;6.750;2024-01-30T21:42:02;8.95;;;8.45;;
60292;SDS011;52402;52.670;6.750;2024-01-30T21:44:28;7.85;;;7.35;;
60292;SDS011;52402;52.670;6.750;2024-01-30T21:46:54;8.05;;;7.55;;
60292;SDS011;52402;52.670;6.750;2024-01-30T21:49:19;8.38;;;7.88;;
60292;SDS011;52402;52.670;6.750;2024-01-30T21:51:45;9.55;;;9.05;;
60292;SDS011;52402;52.670;6.750;2024-01-30T21:54:11;8.98;;;8.48;;
60292;SDS011;52402;52.670;6.750;2024-01-30T21:56:36;8.88;;;8.38;;
60292;SDS011;52402;52.670;6.750;2024-01-30T21:59:05;7.80;;;7.30;;
60292;SDS011;52402;52.670;6.750;2024-01-30T22:01:30;9.48;;;8.98;;
60292;SDS011;52402;52.670;6.750;2024-01-30T22:03:56;9.23;;;8.73;;
60292;SDS011;52402;52.670;6.750;2024-01-30T22:06:24;9.68;;;9.18;;
60292;SDS011;52402;52.670;6.750;2024-01-30T22:08:49;9.75;;;9.25;;
60292;SDS011;52402;52.670;6.750;2024-01-30T22:11:15;7.82;;;7.32;;
60292;SDS011;52402;52.670;6.750;2024-01-30T22:13:40;8.48;;;7.97;;
60292;SDS011;52402;52.670;6.750;2024-01-30T22:16:06;8.80;;;8.30;;
60292;SDS011;52402;52.670;6.750;2024-01-30T22:18:32;9.15;;;8.65;;
60292;SDS011;52402;52.670;6.750;2024-01-30T22:20:57;9.07;;;8.57;;
60292;SDS011;52402;52.670;6.750;2024-01-30T22:23:23;9.18;;;8.68;;
60292;SDS011;52402;52.670;6.750;2024-01-30T22:25:50;9.43;;;8.93;;
60292;SDS011;52402;52.670;6.750;2024-01-30T22:28:15;8.52;;;8.02;;
60292;SDS011;52402;52.670;6.750;2024-01-30T22:30:41;8.85;;;8.35;;
60292;SDS011;52402;52.670;6.750;2024-01-30T22:33:07;9.13;;;8.63;;
60292;SDS011;52402;52.670;6.750;2024-01-30T22:35:34;9.88;;;9.38;;
60292;SDS011;52402;52.670;6.750;2024-01-30T22:38:00;9.73;;;9.23;;
60292;SDS011;52402;52.670;6.750;2024-01-30T22:40:26;8.70;;;8.20;;
60292;SDS011;52402;52.670;6.750;2024-01-30T22:42:51;8.80;;;8.30;;
60292;SDS011;52402;52.670;6.750;2024-01-30T22:45:19;8.80;;;8.30;;
60292;SDS011;52402;52.670;6.750;2024-01-30T22:47:45;9.18;;;8.68;;
60292;SDS011;52402;52.670;6.750;2024-01-30T22:50:11;8.73;;;8.23;;
60292;SDS011;52402;52.670;6.750;2024-01-30T22:52:37;10.55;;;9.95;;
60292;SDS011;52402;52.670;6.750;2024-01-30T22:55:03;8.73;;;8.23;;
60292;SDS011;52402;52.670;6.750;2024-01-30T22:57:29;8.80;;;8.30;;
60292;SDS011;52402;52.670;6.750;2024-01-30T22:59:58;8.18;;;7.68;;
60292;SDS011;52402;52.670;6.750;2024-01-30T23:02:24;9.32;;;8.82;;
60292;SDS011;52402;52.670;6.750;2024-01-30T23:04:50;8.32;;;7.82;;
60292;SDS011;52402;52.670;6.750;2024-01-30T23:07:15;8.50;;;8.00;;
60292;SDS011;52402;52.670;6.750;2024-01-30T23:09:42;8.30;;;7.80;;
60292;SDS011;52402;52.670;6.750;2024-01-30T23:12:09;7.68;;;7.18;;
60292;SDS011;52402;52.670;6.750;2024-01-30T23:14:35;8.27;;;7.78;;
60292;SDS011;52402;52.670;6.750;2024-01-30T23:17:01;8.25;;;7.75;;
60292;SDS011;52402;52.670;6.750;2024-01-30T23:19:27;9.00;;;8.50;;
60292;SDS011;52402;52.670;6.750;2024-01-30T23:21:52;8.30;;;7.80;;
60292;SDS011;52402;52.670;6.750;2024-01-30T23:24:18;8.82;;;8.32;;
60292;SDS011;52402;52.670;6.750;2024-01-30T23:26:43;8.05;;;7.55;;
60292;SDS011;52402;52.670;6.750;2024-01-30T23:29:09;8.02;;;7.53;;
60292;SDS011;52402;52.670;6.750;2024-01-30T23:31:39;9.60;;;9.10;;
60292;SDS011;52402;52.670;6.750;2024-01-30T23:34:05;7.90;;;7.40;;
60292;SDS011;52402;52.670;6.750;2024-01-30T23:36:31;8.75;;;8.25;;
60292;SDS011;52402;52.670;6.750;2024-01-30T23:38:58;7.75;;;7.25;;